createdAt,value
2023-05-13T00:01:10.784Z,5.80
2023-05-13T00:03:37.901Z,6.78
2023-05-13T00:06:04.465Z,7.45
2023-05-13T00:08:30.804Z,7.05
2023-05-13T00:10:57.049Z,5.90
2023-05-13T00:13:23.270Z,7.32
2023-05-13T00:15:49.631Z,7.00
2023-05-13T00:18:15.942Z,6.47
2023-05-13T00:20:42.942Z,6.65
2023-05-13T00:23:09.842Z,7.25
2023-05-13T00:25:37.804Z,7.22
2023-05-13T00:28:04.050Z,7.05
2023-05-13T00:30:30.298Z,6.07
2023-05-13T00:32:57.495Z,6.10
2023-05-13T00:35:23.811Z,6.53
2023-05-13T00:37:50.104Z,7.45
2023-05-13T00:40:17.802Z,6.35
2023-05-13T00:42:44.070Z,6.38
2023-05-13T00:45:10.908Z,6.63
2023-05-13T00:47:39.097Z,6.63
2023-05-13T00:50:05.365Z,7.03
2023-05-13T00:52:31.803Z,6.50
2023-05-13T00:55:00.119Z,6.57
2023-05-13T00:57:26.576Z,7.72
2023-05-13T00:59:52.807Z,6.78
2023-05-13T01:02:19.099Z,6.47
2023-05-13T01:04:46.816Z,6.88
2023-05-13T01:07:13.074Z,6.75
2023-05-13T01:09:39.387Z,6.82
2023-05-13T01:12:05.900Z,7.57
2023-05-13T01:14:32.169Z,7.18
2023-05-13T01:16:58.943Z,6.68
2023-05-13T01:19:25.446Z,7.38
2023-05-13T01:21:51.862Z,6.95
2023-05-13T01:24:18.129Z,7.22
2023-05-13T01:26:44.440Z,6.93
2023-05-13T01:29:10.676Z,7.60
2023-05-13T01:31:36.936Z,7.25
2023-05-13T01:34:03.251Z,6.78
2023-05-13T01:36:29.489Z,6.38
2023-05-13T01:38:55.800Z,8.10
2023-05-13T01:41:22.038Z,9.77
2023-05-13T01:43:48.392Z,8.43
2023-05-13T01:46:14.708Z,7.25
2023-05-13T01:48:40.941Z,7.25
2023-05-13T01:51:07.393Z,7.80
2023-05-13T01:53:33.673Z,7.32
2023-05-13T01:56:00.019Z,7.43
2023-05-13T01:58:26.965Z,7.18
2023-05-13T02:00:53.229Z,6.50
2023-05-13T02:03:20.990Z,7.50
2023-05-13T02:05:47.313Z,6.25
2023-05-13T02:08:13.522Z,8.98
2023-05-13T02:10:39.785Z,7.65
2023-05-13T02:13:06.053Z,8.70
2023-05-13T02:15:32.521Z,6.68
2023-05-13T02:17:58.854Z,6.95
2023-05-13T02:20:25.580Z,8.60
2023-05-13T02:22:52.173Z,7.25
2023-05-13T02:25:18.517Z,6.20
2023-05-13T02:27:44.876Z,6.47
2023-05-13T02:30:11.118Z,6.85
2023-05-13T02:32:37.396Z,7.20
2023-05-13T02:35:03.704Z,6.93
2023-05-13T02:37:30.024Z,6.93
2023-05-13T02:39:56.303Z,7.22
2023-05-13T02:42:22.551Z,8.80
2023-05-13T02:44:48.846Z,6.82
2023-05-13T02:47:15.745Z,7.03
2023-05-13T02:49:42.012Z,6.82
2023-05-13T02:52:08.315Z,7.32
2023-05-13T02:54:34.547Z,7.78
2023-05-13T02:57:00.792Z,6.90
2023-05-13T02:59:29.063Z,7.28
2023-05-13T03:01:55.312Z,7.50
2023-05-13T03:04:21.552Z,7.47
2023-05-13T03:06:52.697Z,6.60
2023-05-13T03:09:18.996Z,7.97
2023-05-13T03:11:50.928Z,6.32
2023-05-13T03:14:23.289Z,7.75
2023-05-13T03:16:49.520Z,8.40
2023-05-13T03:19:15.849Z,7.65
2023-05-13T03:21:42.173Z,7.93
2023-05-13T03:24:08.448Z,6.35
2023-05-13T03:26:34.705Z,7.70
2023-05-13T03:29:02.277Z,7.95
2023-05-13T03:31:28.765Z,7.88
2023-05-13T03:33:55.049Z,7.88
2023-05-13T03:36:22.249Z,7.72
2023-05-13T03:38:48.640Z,7.78
2023-05-13T03:41:14.935Z,7.63
2023-05-13T03:43:41.184Z,6.82
2023-05-13T03:46:07.823Z,7.10
2023-05-13T03:48:34.220Z,8.95
2023-05-13T03:51:00.459Z,7.43
2023-05-13T03:53:26.756Z,7.30
2023-05-13T03:55:53.600Z,7.10
2023-05-13T03:58:20.118Z,7.97
2023-05-13T04:00:46.449Z,7.15
2023-05-13T04:03:12.800Z,8.00
2023-05-13T04:05:39.387Z,7.05
2023-05-13T04:08:05.675Z,7.53
2023-05-13T04:10:31.944Z,7.90
2023-05-13T04:13:02.697Z,7.15
2023-05-13T04:15:28.968Z,8.45
2023-05-13T04:17:55.233Z,7.30
2023-05-13T04:20:21.724Z,7.68
2023-05-13T04:22:48.123Z,8.07
2023-05-13T04:25:14.373Z,8.05
2023-05-13T04:27:41.770Z,8.80
2023-05-13T04:30:08.068Z,8.15
2023-05-13T04:32:34.362Z,8.43
2023-05-13T04:35:01.335Z,7.10
2023-05-13T04:37:28.948Z,7.55
2023-05-13T04:39:55.406Z,6.93
2023-05-13T04:42:21.661Z,8.35
2023-05-13T04:44:47.913Z,8.45
2023-05-13T04:47:14.183Z,8.88
2023-05-13T04:49:40.424Z,6.72
2023-05-13T04:52:07.038Z,7.05
2023-05-13T04:54:33.539Z,7.13
2023-05-13T04:56:59.792Z,7.07
2023-05-13T04:59:26.059Z,7.40
2023-05-13T05:01:52.369Z,8.85
2023-05-13T05:04:18.757Z,7.13
2023-05-13T05:06:45.187Z,8.85
2023-05-13T05:09:13.460Z,8.25
2023-05-13T05:11:39.688Z,7.90
2023-05-13T05:14:05.917Z,7.65
2023-05-13T05:16:32.265Z,9.00
2023-05-13T05:18:58.577Z,7.60
2023-05-13T05:21:26.360Z,7.18
2023-05-13T05:23:52.601Z,7.78
2023-05-13T05:26:18.906Z,7.60
2023-05-13T05:28:45.195Z,7.18
2023-05-13T05:31:11.509Z,6.97
2023-05-13T05:33:37.787Z,7.53
2023-05-13T05:36:04.041Z,6.82
2023-05-13T05:38:30.292Z,8.38
2023-05-13T05:40:56.635Z,7.22
2023-05-13T05:43:22.894Z,7.45
2023-05-13T05:45:49.906Z,6.93
2023-05-13T05:48:16.149Z,7.00
2023-05-13T05:50:42.600Z,7.00
2023-05-13T05:53:09.898Z,7.43
2023-05-13T05:55:36.157Z,7.35
2023-05-13T05:58:02.402Z,6.80
2023-05-13T06:00:28.710Z,7.22
2023-05-13T06:02:55.451Z,7.40
2023-05-13T06:05:21.777Z,6.72
2023-05-13T06:07:48.683Z,7.47
2023-05-13T06:10:15.024Z,7.25
2023-05-13T06:12:41.277Z,6.38
2023-05-13T06:15:07.517Z,7.53
2023-05-13T06:17:33.874Z,8.50
2023-05-13T06:20:01.447Z,7.90
2023-05-13T06:22:27.750Z,7.82
2023-05-13T06:24:56.634Z,7.68
2023-05-13T06:27:22.930Z,7.75
2023-05-13T06:29:49.175Z,7.90
2023-05-13T06:32:15.411Z,7.88
2023-05-13T06:34:44.612Z,8.35
2023-05-13T06:37:10.893Z,9.15
2023-05-13T06:39:37.947Z,8.27
2023-05-13T06:42:04.187Z,7.93
2023-05-13T06:44:30.446Z,7.50
2023-05-13T06:46:56.716Z,8.25
2023-05-13T06:49:22.999Z,8.48
2023-05-13T06:51:49.265Z,8.18
2023-05-13T06:54:15.520Z,7.80
2023-05-13T06:56:41.801Z,8.50
2023-05-13T06:59:08.076Z,9.20
2023-05-13T07:01:34.321Z,9.95
2023-05-13T07:04:00.746Z,7.68
2023-05-13T07:06:27.053Z,6.57
2023-05-13T07:08:53.292Z,8.82
2023-05-13T07:11:19.517Z,8.23
2023-05-13T07:13:45.787Z,8.00
2023-05-13T07:16:13.125Z,8.52
2023-05-13T07:18:39.445Z,9.10
2023-05-13T07:21:05.914Z,8.65
2023-05-13T07:23:32.328Z,9.35
2023-05-13T07:25:58.581Z,8.13
2023-05-13T07:28:24.824Z,7.78
2023-05-13T07:30:52.724Z,8.60
2023-05-13T07:33:19.016Z,8.57
2023-05-13T07:35:46.476Z,8.10
2023-05-13T07:38:12.764Z,9.95
2023-05-13T07:40:39.533Z,9.00
2023-05-13T07:43:05.767Z,8.38
2023-05-13T07:45:32.021Z,9.45
2023-05-13T07:47:58.331Z,8.43
2023-05-13T07:50:24.950Z,8.10
2023-05-13T07:52:51.207Z,10.30
2023-05-13T07:55:17.511Z,7.78
2023-05-13T07:57:44.262Z,8.18
2023-05-13T08:00:10.495Z,8.25
2023-05-13T08:02:37.721Z,8.48
2023-05-13T08:05:04.182Z,8.02
2023-05-13T08:07:30.527Z,8.10
2023-05-13T08:09:56.808Z,10.80
2023-05-13T08:12:23.067Z,9.38
2023-05-13T08:14:49.331Z,8.82
2023-05-13T08:17:15.632Z,9.68
2023-05-13T08:19:41.886Z,9.25
2023-05-13T08:22:08.118Z,8.63
2023-05-13T08:24:35.227Z,9.20
2023-05-13T08:27:01.490Z,11.00
2023-05-13T08:29:28.251Z,9.27
2023-05-13T08:31:54.594Z,12.18
2023-05-13T08:34:21.028Z,9.38
2023-05-13T08:36:47.277Z,7.93
2023-05-13T08:39:13.782Z,8.48
2023-05-13T08:41:40.109Z,8.07
2023-05-13T08:44:06.370Z,9.05
2023-05-13T08:46:32.665Z,8.85
2023-05-13T08:49:00.023Z,9.85
2023-05-13T08:51:26.282Z,9.20
2023-05-13T08:53:52.533Z,8.75
2023-05-13T08:56:18.781Z,9.70
2023-05-13T08:58:45.040Z,9.52
2023-05-13T09:01:11.332Z,9.05
2023-05-13T09:03:37.641Z,9.93
2023-05-13T09:06:03.909Z,8.43
2023-05-13T09:08:30.155Z,8.32
2023-05-13T09:10:56.482Z,8.35
2023-05-13T09:13:22.791Z,11.13
2023-05-13T09:15:49.077Z,10.90
2023-05-13T09:18:18.022Z,7.53
2023-05-13T09:20:45.602Z,7.70
2023-05-13T09:23:11.882Z,7.90
2023-05-13T09:25:38.232Z,8.32
2023-05-13T09:28:04.513Z,9.23
2023-05-13T09:30:30.744Z,7.45
2023-05-13T09:32:57.059Z,7.88
2023-05-13T09:35:23.448Z,9.07
2023-05-13T09:37:49.721Z,7.35
2023-05-13T09:40:16.512Z,9.27
2023-05-13T09:42:42.859Z,7.63
2023-05-13T09:45:09.255Z,8.35
2023-05-13T09:47:35.796Z,9.20
2023-05-13T09:50:02.159Z,7.95
2023-05-13T09:55:37.690Z,9.73
2023-05-13T09:58:03.968Z,7.28
2023-05-13T10:00:33.158Z,8.80
2023-05-13T10:03:00.293Z,8.68
2023-05-13T10:05:26.622Z,8.52
2023-05-13T10:07:52.880Z,7.22
2023-05-13T10:10:21.674Z,12.40
2023-05-13T10:12:48.001Z,108.82
2023-05-13T10:15:14.277Z,389.17
2023-05-13T10:17:40.537Z,282.85
2023-05-13T10:20:07.353Z,189.45
2023-05-13T10:22:33.663Z,114.45
2023-05-13T10:24:59.908Z,44.28
2023-05-13T10:27:26.908Z,13.63
2023-05-13T10:29:53.183Z,23.85
2023-05-13T10:32:20.456Z,59.53
2023-05-13T10:34:46.876Z,55.60
2023-05-13T10:37:13.181Z,42.17
2023-05-13T10:39:39.463Z,26.38
2023-05-13T10:42:05.729Z,23.35
2023-05-13T10:44:32.141Z,21.77
2023-05-13T10:46:58.402Z,15.02
2023-05-13T10:49:24.653Z,13.20
2023-05-13T10:51:50.949Z,10.70
2023-05-13T10:54:17.186Z,298.92
2023-05-13T10:56:43.754Z,355.13
2023-05-13T10:59:10.163Z,240.35
2023-05-13T11:01:36.459Z,155.38
2023-05-13T11:04:03.462Z,133.20
2023-05-13T11:06:29.844Z,85.78
2023-05-13T11:08:56.445Z,62.03
2023-05-13T11:11:22.890Z,49.92
2023-05-13T11:13:49.125Z,36.05
2023-05-13T11:16:15.481Z,32.72
2023-05-13T11:18:41.768Z,142.80
2023-05-13T11:21:09.404Z,235.60
2023-05-13T11:23:35.758Z,175.15
2023-05-13T11:26:02.065Z,130.48
2023-05-13T11:28:28.326Z,86.93
2023-05-13T11:30:54.583Z,56.80
2023-05-13T11:33:20.855Z,42.00
2023-05-13T11:35:47.274Z,32.10
2023-05-13T11:38:13.686Z,30.10
2023-05-13T11:40:43.489Z,26.85
2023-05-13T11:43:09.805Z,16.60
2023-05-13T11:45:36.148Z,15.27
2023-05-13T11:48:03.707Z,140.07
2023-05-13T11:50:30.841Z,324.73
2023-05-13T11:52:57.403Z,211.32
2023-05-13T11:55:23.779Z,173.07
2023-05-13T11:57:50.186Z,124.45
2023-05-13T12:00:16.723Z,106.13
2023-05-13T12:02:43.058Z,80.93
2023-05-13T12:05:09.498Z,58.03
2023-05-13T12:07:36.088Z,40.40
2023-05-13T12:10:02.349Z,28.00
2023-05-13T12:12:28.617Z,27.70
2023-05-13T12:14:54.957Z,24.38
2023-05-13T12:17:21.259Z,24.98
2023-05-13T12:19:47.528Z,16.60
2023-05-13T12:22:13.946Z,17.83
2023-05-13T12:24:40.179Z,18.27
2023-05-13T12:27:07.214Z,10.90
2023-05-13T12:29:34.468Z,10.70
2023-05-13T12:32:00.921Z,11.27
2023-05-13T12:34:27.156Z,8.80
2023-05-13T12:36:53.487Z,10.90
2023-05-13T12:39:20.353Z,10.98
2023-05-13T12:41:48.011Z,8.77
2023-05-13T12:44:14.284Z,9.95
2023-05-13T12:46:42.809Z,43.42
2023-05-13T12:49:10.191Z,443.00
2023-05-13T12:51:38.374Z,234.48
2023-05-13T12:54:04.684Z,156.57
2023-05-13T12:56:30.937Z,103.85
2023-05-13T12:58:57.234Z,77.45
2023-05-13T13:01:23.528Z,52.65
2023-05-13T13:03:51.291Z,35.08
2023-05-13T13:06:17.658Z,24.77
2023-05-13T13:08:45.073Z,21.27
2023-05-13T13:11:11.432Z,20.98
2023-05-13T13:13:39.385Z,13.55
2023-05-13T13:16:07.213Z,359.15
2023-05-13T13:18:33.621Z,402.10
2023-05-13T13:20:59.925Z,221.80
2023-05-13T13:23:26.166Z,168.10
2023-05-13T13:25:54.569Z,118.88
2023-05-13T13:28:20.899Z,98.90
2023-05-13T13:30:47.367Z,68.72
2023-05-13T13:33:13.761Z,50.53
2023-05-13T13:35:40.033Z,39.92
2023-05-13T13:38:06.290Z,27.25
2023-05-13T13:40:32.555Z,23.25
2023-05-13T13:42:59.364Z,17.85
2023-05-13T13:45:25.671Z,18.75
2023-05-13T13:47:53.505Z,158.55
2023-05-13T13:50:19.988Z,167.60
2023-05-13T13:52:46.559Z,159.02
2023-05-13T13:55:14.871Z,113.10
2023-05-13T13:57:41.131Z,101.07
2023-05-13T14:00:07.503Z,79.10
2023-05-13T14:02:34.027Z,65.03
2023-05-13T14:05:01.185Z,52.10
2023-05-13T14:07:27.569Z,43.63
2023-05-13T14:09:55.038Z,42.00
2023-05-13T14:12:21.280Z,44.67
2023-05-13T14:14:47.540Z,31.75
2023-05-13T14:17:14.510Z,31.67
2023-05-13T14:19:40.983Z,32.55
2023-05-13T14:22:07.873Z,21.80
2023-05-13T14:27:18.366Z,18.77
2023-05-13T14:29:44.626Z,34.00
2023-05-13T14:32:12.231Z,58.65
2023-05-13T14:37:22.101Z,54.30
2023-05-13T14:39:50.119Z,40.85
2023-05-13T14:45:07.880Z,35.28
2023-05-13T14:47:34.206Z,14.65
2023-05-13T14:50:00.500Z,19.70
2023-05-13T14:52:26.790Z,15.15
2023-05-13T14:54:55.268Z,13.45
2023-05-13T14:57:21.562Z,10.07
2023-05-13T14:59:47.988Z,18.27
2023-05-13T15:02:14.350Z,51.40
2023-05-13T15:04:40.659Z,134.45
2023-05-13T15:07:11.543Z,74.43
2023-05-13T15:09:37.841Z,87.03
2023-05-13T15:12:04.107Z,77.25
2023-05-13T15:14:31.118Z,63.95
2023-05-13T15:16:57.478Z,42.42
2023-05-13T15:19:24.120Z,25.23
2023-05-13T15:21:50.373Z,35.05
2023-05-13T15:24:16.803Z,30.48
2023-05-13T15:26:43.030Z,24.58
2023-05-13T15:29:09.298Z,29.58
2023-05-13T15:31:35.650Z,120.30
2023-05-13T15:34:03.817Z,140.27
2023-05-13T15:36:30.884Z,104.50
2023-05-13T15:38:57.239Z,48.00
2023-05-13T15:41:23.594Z,25.58
2023-05-13T15:43:49.846Z,30.80
2023-05-13T15:46:16.172Z,16.95
2023-05-13T15:48:45.208Z,14.63
2023-05-13T15:51:11.473Z,20.85
2023-05-13T15:53:38.332Z,18.15
2023-05-13T15:56:07.134Z,17.67
2023-05-13T15:58:33.703Z,12.88
2023-05-13T16:00:59.956Z,13.60
2023-05-13T16:03:27.389Z,13.60
2023-05-13T16:05:53.707Z,12.63
2023-05-13T16:08:19.959Z,13.52
2023-05-13T16:10:46.243Z,10.40
2023-05-13T16:13:12.596Z,11.07
2023-05-13T16:15:39.188Z,13.32
2023-05-13T16:18:06.290Z,12.85
2023-05-13T16:20:32.577Z,11.65
2023-05-13T16:22:59.986Z,12.38
2023-05-13T16:25:27.232Z,25.73
2023-05-13T16:27:53.453Z,20.45
2023-05-13T16:30:19.752Z,22.33
2023-05-13T16:32:48.011Z,15.43
2023-05-13T16:35:16.450Z,11.82
2023-05-13T16:37:44.799Z,11.70
2023-05-13T16:40:11.045Z,11.82
2023-05-13T16:42:37.301Z,10.50
2023-05-13T16:45:04.091Z,13.10
2023-05-13T16:47:31.287Z,10.43
2023-05-13T16:49:58.860Z,11.45
2023-05-13T16:52:25.102Z,11.63
2023-05-13T16:54:51.617Z,10.23
2023-05-13T16:57:19.167Z,9.52
2023-05-13T16:59:45.410Z,12.90
2023-05-13T17:02:11.666Z,8.45
2023-05-13T17:04:37.935Z,132.15
2023-05-13T17:07:04.191Z,56.45
2023-05-13T17:09:30.425Z,22.80
2023-05-13T17:11:56.831Z,13.02
2023-05-13T17:14:23.085Z,13.45
2023-05-13T17:16:49.376Z,14.15
2023-05-13T17:19:15.860Z,13.63
2023-05-13T17:21:42.234Z,16.83
2023-05-13T17:24:08.501Z,18.20
2023-05-13T17:26:36.210Z,11.95
2023-05-13T17:29:04.617Z,17.25
2023-05-13T17:31:30.891Z,20.90
2023-05-13T17:33:57.210Z,22.70
2023-05-13T17:36:23.474Z,15.70
2023-05-13T17:38:49.781Z,14.15
2023-05-13T17:41:16.030Z,13.60
2023-05-13T17:43:44.382Z,13.27
2023-05-13T17:46:11.468Z,18.98
2023-05-13T17:48:37.812Z,14.75
2023-05-13T17:51:04.220Z,12.73
2023-05-13T17:53:31.681Z,17.70
2023-05-13T17:56:00.062Z,9.93
2023-05-13T17:58:29.117Z,9.70
2023-05-13T18:00:56.731Z,16.15
2023-05-13T18:03:22.975Z,10.70
2023-05-13T18:05:49.276Z,9.93
2023-05-13T18:08:15.672Z,9.43
2023-05-13T18:10:42.656Z,11.07
2023-05-13T18:13:09.012Z,9.82
2023-05-13T18:15:35.234Z,7.90
2023-05-13T18:18:01.563Z,11.77
2023-05-13T18:20:28.001Z,15.00
2023-05-13T18:22:54.285Z,11.70
2023-05-13T18:25:20.558Z,8.35
2023-05-13T18:27:46.857Z,8.75
2023-05-13T18:30:14.044Z,9.43
2023-05-13T18:32:40.344Z,27.70
2023-05-13T18:35:06.641Z,33.10
2023-05-13T18:37:34.708Z,39.53
2023-05-13T18:40:01.057Z,33.85
2023-05-13T18:42:27.294Z,28.80
2023-05-13T18:44:55.325Z,31.83
2023-05-13T18:47:21.571Z,28.05
2023-05-13T18:49:47.840Z,24.88
2023-05-13T18:52:16.407Z,23.48
2023-05-13T18:54:42.644Z,23.17
2023-05-13T18:57:11.458Z,112.22
2023-05-13T18:59:37.782Z,98.47
2023-05-13T19:02:04.219Z,85.82
2023-05-13T19:04:30.692Z,78.50
2023-05-13T19:06:57.056Z,102.40
2023-05-13T19:09:23.391Z,108.57
2023-05-13T19:11:49.837Z,111.32
2023-05-13T19:14:16.301Z,152.90
2023-05-13T19:16:42.586Z,365.02
2023-05-13T19:19:08.868Z,365.92
2023-05-13T19:21:35.136Z,257.38
2023-05-13T19:24:01.371Z,263.80
2023-05-13T19:26:27.813Z,238.13
2023-05-13T19:28:54.665Z,233.82
2023-05-13T19:31:21.074Z,219.88
2023-05-13T19:33:47.433Z,212.40
2023-05-13T19:36:13.669Z,204.15
2023-05-13T19:38:42.430Z,194.13
2023-05-13T19:41:09.654Z,190.95
2023-05-13T19:43:35.942Z,177.80
2023-05-13T19:46:02.248Z,174.88
2023-05-13T19:48:29.887Z,171.00
2023-05-13T19:50:56.355Z,162.18
2023-05-13T19:53:26.047Z,154.95
2023-05-13T19:55:52.310Z,165.77
2023-05-13T19:58:18.571Z,368.58
2023-05-13T20:00:45.029Z,312.63
2023-05-13T20:03:14.544Z,283.53
2023-05-13T20:05:41.170Z,259.90
2023-05-13T20:08:09.242Z,253.07
2023-05-13T20:10:37.817Z,244.45
2023-05-13T20:13:04.136Z,232.30
2023-05-13T20:15:32.710Z,227.70
2023-05-13T20:17:59.106Z,220.30
2023-05-13T20:20:26.550Z,212.80
2023-05-13T20:22:52.985Z,208.23
2023-05-13T20:25:19.230Z,198.43
2023-05-13T20:27:45.462Z,197.27
2023-05-13T20:30:11.715Z,183.70
2023-05-13T20:32:37.972Z,182.38
2023-05-13T20:35:04.279Z,174.45
2023-05-13T20:37:32.715Z,169.88
2023-05-13T20:39:58.957Z,160.68
2023-05-13T20:42:25.322Z,253.40
2023-05-13T20:44:53.259Z,437.00
2023-05-13T20:47:19.557Z,367.10
2023-05-13T20:49:45.966Z,366.27
2023-05-13T20:52:12.300Z,342.88
2023-05-13T20:54:38.561Z,337.92
2023-05-13T20:57:04.887Z,342.02
2023-05-13T20:59:33.218Z,336.75
2023-05-13T21:01:59.601Z,643.53
2023-05-13T21:04:27.251Z,703.80
2023-05-13T21:06:54.038Z,593.65
2023-05-13T21:09:21.560Z,557.58
2023-05-13T21:11:48.912Z,530.60
2023-05-13T21:14:15.171Z,517.10
2023-05-13T21:16:41.867Z,491.85
2023-05-13T21:19:10.081Z,474.15
2023-05-13T21:21:39.535Z,455.90
2023-05-13T21:24:05.757Z,473.92
2023-05-13T21:26:32.060Z,620.90
2023-05-13T21:28:58.341Z,608.22
2023-05-13T21:31:25.712Z,576.08
2023-05-13T21:33:52.053Z,569.65
2023-05-13T21:36:18.373Z,566.03
2023-05-13T21:38:44.606Z,561.55
2023-05-13T21:41:10.969Z,557.80
2023-05-13T21:43:38.305Z,544.67
2023-05-13T21:46:04.617Z,538.97
2023-05-13T21:48:30.936Z,532.40
2023-05-13T21:50:57.861Z,537.88
2023-05-13T21:53:24.207Z,533.50
2023-05-13T21:55:52.077Z,512.63
2023-05-13T21:58:19.775Z,515.17
2023-05-13T22:00:47.463Z,511.45
2023-05-13T22:03:13.833Z,504.08
2023-05-13T22:05:40.094Z,482.67
2023-05-13T22:08:06.413Z,482.75
2023-05-13T22:10:32.747Z,473.20
2023-05-13T22:13:00.033Z,472.77
2023-05-13T22:15:26.307Z,452.63
2023-05-13T22:17:52.600Z,447.95
2023-05-13T22:20:19.951Z,435.95
2023-05-13T22:22:47.072Z,432.73
2023-05-13T22:25:13.301Z,418.15
2023-05-13T22:27:39.551Z,428.75
2023-05-13T22:30:05.858Z,409.58
2023-05-13T22:32:35.164Z,400.80
2023-05-13T22:35:01.481Z,400.92
2023-05-13T22:37:28.601Z,402.98
2023-05-13T22:39:56.540Z,388.95
2023-05-13T22:42:22.808Z,389.17
2023-05-13T22:44:49.089Z,388.02
2023-05-13T22:47:15.334Z,377.70
2023-05-13T22:49:43.542Z,370.15
2023-05-13T22:52:10.525Z,357.65
2023-05-13T22:54:36.899Z,358.23
2023-05-13T22:57:04.117Z,350.83
2023-05-13T22:59:30.339Z,354.42
2023-05-13T23:01:57.117Z,348.17
2023-05-13T23:04:30.572Z,345.95
2023-05-13T23:06:57.003Z,325.02
2023-05-13T23:09:23.356Z,323.83
2023-05-13T23:11:50.560Z,323.02
2023-05-13T23:14:18.457Z,320.58
2023-05-13T23:16:44.816Z,325.20
2023-05-13T23:19:11.092Z,321.23
2023-05-13T23:21:39.720Z,310.50
2023-05-13T23:24:10.268Z,304.88
2023-05-13T23:26:36.502Z,297.35
2023-05-13T23:29:07.082Z,287.35
2023-05-13T23:31:35.907Z,300.05
2023-05-13T23:34:02.157Z,282.50
2023-05-13T23:36:30.551Z,283.50
2023-05-13T23:38:56.778Z,290.58
2023-05-13T23:41:23.085Z,284.80
2023-05-13T23:43:50.786Z,278.75
2023-05-13T23:46:17.654Z,267.48
2023-05-13T23:48:43.990Z,261.88
2023-05-13T23:51:10.262Z,268.13
2023-05-13T23:53:36.481Z,275.45
2023-05-13T23:56:02.935Z,263.90
2023-05-13T23:58:29.152Z,252.70
